Time;durP1;ratioP1;P1;durP2;ratioP2;P2;SDS_P1;SDS_P2;PMS_P1;PMS_P2;Temp;Humidity;BMP_temperature;BMP_pressure;BME280_temperature;BME280_humidity;BME280_pressure;Samples;Min_cycle;Max_cycle;Signal;HPM_P1;HPM_P2
2022/05/11 00:00:39;;;;;;;8.35;4.95;;;21.90;54.10;;;;;;5033979;28;20029;-84
2022/05/11 00:03:05;;;;;;;7.30;5.03;;;21.80;54.50;;;;;;5034097;28;20071;-85
2022/05/11 00:05:32;;;;;;;9.30;4.97;;;21.70;55.00;;;;;;5034620;28;20021;-86
2022/05/11 00:07:58;;;;;;;7.18;4.90;;;21.60;55.30;;;;;;5016088;28;20029;-82
2022/05/11 00:10:24;;;;;;;6.68;5.10;;;21.60;55.60;;;;;;5015722;28;20116;-84
2022/05/11 00:12:50;;;;;;;8.55;5.15;;;21.60;55.50;;;;;;5033746;28;20124;-81
2022/05/11 00:15:19;;;;;;;8.18;5.50;;;21.50;55.60;;;;;;5015899;28;20030;-80
2022/05/11 00:17:45;;;;;;;7.57;5.30;;;21.30;56.00;;;;;;5016415;28;20030;-85
2022/05/11 00:20:11;;;;;;;9.65;5.32;;;21.40;56.00;;;;;;5015722;28;20476;-83
2022/05/11 00:22:38;;;;;;;8.73;5.60;;;21.40;55.90;;;;;;5016068;28;20027;-83
2022/05/11 00:25:06;;;;;;;8.05;5.13;;;21.40;55.90;;;;;;5035130;28;20508;-84
2022/05/11 00:27:34;;;;;;;8.45;5.38;;;21.40;55.90;;;;;;5033486;28;20032;-83
2022/05/11 00:30:01;;;;;;;8.63;4.95;;;21.20;56.20;;;;;;5014287;28;20319;-84
2022/05/11 00:32:27;;;;;;;7.80;5.50;;;21.20;56.00;;;;;;5013723;28;20026;-82
2022/05/11 00:34:53;;;;;;;9.07;5.90;;;21.10;56.30;;;;;;4996327;28;20022;-82
2022/05/11 00:37:20;;;;;;;7.03;5.22;;;21.00;56.50;;;;;;4996452;28;20099;-82
2022/05/11 00:39:46;;;;;;;9.82;5.40;;;20.90;56.60;;;;;;5001119;28;20369;-82
2022/05/11 00:42:11;;;;;;;9.00;5.35;;;20.90;57.00;;;;;;5017122;28;20072;-83
2022/05/11 00:44:37;;;;;;;8.30;5.45;;;21.00;56.80;;;;;;5000071;28;20465;-82
2022/05/11 00:47:14;;;;;;;8.02;5.18;;;20.90;56.90;;;;;;5000089;28;20442;-93
2022/05/11 00:49:45;;;;;;;8.27;5.38;;;21.00;56.50;;;;;;5017045;28;20046;-82
2022/05/11 00:52:23;;;;;;;8.40;5.95;;;21.10;56.40;;;;;;4999542;28;20033;-83
2022/05/11 00:55:05;;;;;;;8.02;5.35;;;21.20;56.20;;;;;;5000149;28;20034;-83
2022/05/11 00:57:50;;;;;;;7.00;5.00;;;21.30;56.00;;;;;;5017315;28;20377;-82
2022/05/11 01:00:18;;;;;;;8.73;5.90;;;21.30;55.80;;;;;;4999985;28;20040;-82
2022/05/11 01:02:46;;;;;;;6.75;5.13;;;21.40;55.90;;;;;;4999852;28;20026;-83
2022/05/11 01:05:12;;;;;;;7.40;5.00;;;21.40;55.80;;;;;;5000001;28;20076;-87
2022/05/11 01:07:38;;;;;;;7.90;5.18;;;21.40;55.60;;;;;;4999937;28;20587;-89
2022/05/11 01:10:06;;;;;;;9.18;5.25;;;21.40;55.50;;;;;;4999592;28;20038;-85
2022/05/11 01:12:39;;;;;;;7.10;4.72;;;21.40;55.30;;;;;;5016659;28;20092;-81
2022/05/11 01:15:06;;;;;;;7.50;5.00;;;21.40;55.00;;;;;;5017260;28;20018;-81
2022/05/11 01:17:33;;;;;;;6.82;4.93;;;21.50;54.80;;;;;;4999251;28;20054;-79
2022/05/11 01:20:00;;;;;;;7.30;5.05;;;21.40;55.10;;;;;;4998905;28;20397;-78
2022/05/11 01:22:47;;;;;;;8.48;5.13;;;21.40;55.10;;;;;;4998853;28;20373;-78
2022/05/11 01:25:14;;;;;;;7.45;5.00;;;21.40;55.00;;;;;;4999359;28;20025;-81
2022/05/11 01:27:43;;;;;;;7.93;5.38;;;21.40;55.20;;;;;;5016921;28;20029;-83
2022/05/11 01:30:12;;;;;;;7.88;5.22;;;21.10;55.40;;;;;;4999305;28;20088;-81
2022/05/11 01:32:40;;;;;;;7.93;5.43;;;21.20;55.70;;;;;;4998805;28;20461;-81
2022/05/11 01:35:27;;;;;;;8.90;5.22;;;21.10;55.90;;;;;;5016090;28;20396;-81
2022/05/11 01:38:11;;;;;;;7.10;5.35;;;21.10;56.10;;;;;;5016361;28;20026;-81
2022/05/11 01:40:36;;;;;;;8.30;5.47;;;21.20;55.90;;;;;;5016142;28;20112;-81
2022/05/11 01:43:02;;;;;;;9.27;5.90;;;21.30;55.60;;;;;;5016427;28;20028;-90
2022/05/11 01:45:28;;;;;;;8.93;6.05;;;21.30;55.40;;;;;;4999230;28;20045;-80
2022/05/11 01:47:55;;;;;;;9.00;5.60;;;21.30;55.50;;;;;;4998459;28;20022;-82
2022/05/11 01:50:21;;;;;;;8.65;5.43;;;21.40;55.30;;;;;;5001807;28;20049;-88
2022/05/11 01:52:47;;;;;;;6.93;5.10;;;21.30;55.50;;;;;;5009786;28;20064;-81
2022/05/11 01:55:13;;;;;;;7.32;5.70;;;21.40;55.50;;;;;;5017146;28;20032;-81
2022/05/11 01:57:39;;;;;;;9.98;5.70;;;21.40;55.60;;;;;;5017972;28;20361;-80
2022/05/11 02:00:09;;;;;;;11.18;6.90;;;21.40;55.50;;;;;;5017650;28;20403;-80
2022/05/11 02:02:35;;;;;;;9.10;5.93;;;21.40;55.60;;;;;;5036163;28;20397;-80
2022/05/11 02:07:52;;;;;;;9.93;6.57;;;21.50;55.50;;;;;;5035488;28;20396;-81
2022/05/11 02:10:20;;;;;;;9.48;6.00;;;21.30;55.40;;;;;;5018491;28;20037;-79
2022/05/11 02:12:46;;;;;;;8.98;5.85;;;21.20;56.10;;;;;;5017191;28;20033;-79
2022/05/11 02:15:14;;;;;;;8.18;6.10;;;21.20;55.70;;;;;;5036153;28;20021;-79
2022/05/11 02:17:43;;;;;;;10.98;6.43;;;21.10;55.70;;;;;;5017441;28;20022;-80
2022/05/11 02:20:11;;;;;;;10.13;6.68;;;20.70;56.20;;;;;;5017095;28;20049;-78
2022/05/11 02:22:37;;;;;;;9.60;6.25;;;20.60;56.90;;;;;;5034964;28;20022;-78
2022/05/11 02:25:04;;;;;;;9.02;6.50;;;20.40;57.00;;;;;;5034706;28;20044;-78
2022/05/11 02:27:31;;;;;;;12.13;6.80;;;20.40;56.90;;;;;;5016502;28;20108;-80
2022/05/11 02:29:58;;;;;;;12.60;6.50;;;20.20;56.80;;;;;;5017057;28;20494;-78
2022/05/11 02:32:24;;;;;;;10.45;7.25;;;20.20;57.10;;;;;;5035155;28;20037;-78
2022/05/11 02:37:34;;;;;;;10.52;7.43;;;19.80;58.10;;;;;;5034994;28;20477;-78
2022/05/11 02:40:00;;;;;;;11.77;7.65;;;19.60;58.70;;;;;;5034893;28;20041;-79
2022/05/11 02:42:26;;;;;;;10.55;7.22;;;19.50;58.80;;;;;;5016757;28;20029;-78
2022/05/11 02:44:52;;;;;;;10.20;7.70;;;19.40;58.40;;;;;;5034576;28;20021;-78
2022/05/11 02:47:18;;;;;;;11.32;8.23;;;19.40;58.40;;;;;;5016431;28;20385;-78
2022/05/11 02:49:47;;;;;;;12.80;8.93;;;19.30;58.60;;;;;;5034739;28;20053;-78
2022/05/11 02:52:14;;;;;;;10.70;7.45;;;19.00;59.00;;;;;;5018143;28;20010;-77
2022/05/11 02:54:40;;;;;;;9.50;7.88;;;19.30;59.10;;;;;;5034354;28;20038;-85
2022/05/11 02:57:06;;;;;;;11.10;8.02;;;19.40;58.80;;;;;;5034773;28;20536;-78
2022/05/11 02:59:32;;;;;;;12.00;8.27;;;19.20;58.50;;;;;;5016949;28;20029;-84
2022/05/11 03:01:57;;;;;;;11.43;8.02;;;19.40;58.50;;;;;;5016065;28;20018;-78
2022/05/11 03:04:24;;;;;;;9.35;7.78;;;19.20;58.30;;;;;;5033946;28;20025;-79
2022/05/11 03:06:50;;;;;;;9.98;8.10;;;19.20;58.30;;;;;;5017387;28;20575;-84
2022/05/11 03:09:16;;;;;;;10.95;8.40;;;19.10;58.70;;;;;;5017067;28;20025;-78
2022/05/11 03:11:43;;;;;;;13.30;9.38;;;19.20;59.10;;;;;;5034029;28;20030;-78
2022/05/11 03:14:09;;;;;;;11.18;8.55;;;19.20;59.10;;;;;;5034939;28;20599;-78
2022/05/11 03:16:36;;;;;;;12.27;8.57;;;19.40;59.10;;;;;;5015895;28;20029;-78
2022/05/11 03:19:02;;;;;;;11.15;8.15;;;19.30;58.50;;;;;;5015720;28;20021;-78
2022/05/11 03:21:28;;;;;;;12.60;8.35;;;19.20;58.60;;;;;;5034575;28;20080;-78
2022/05/11 03:23:55;;;;;;;12.05;8.18;;;19.20;58.50;;;;;;5016868;28;20075;-78
2022/05/11 03:26:21;;;;;;;9.80;8.38;;;19.20;59.30;;;;;;5016243;28;20025;-79
2022/05/11 03:28:47;;;;;;;13.00;8.07;;;19.00;58.60;;;;;;5016222;28;20029;-79
2022/05/11 03:31:13;;;;;;;10.77;8.13;;;18.80;58.90;;;;;;5034129;28;20039;-78
2022/05/11 03:36:23;;;;;;;12.18;8.73;;;19.00;58.90;;;;;;5033976;28;20037;-78
2022/05/11 03:38:49;;;;;;;11.65;8.75;;;19.00;58.90;;;;;;5015914;28;20026;-78
2022/05/11 03:41:14;;;;;;;10.05;8.43;;;19.00;58.90;;;;;;5015818;28;20033;-84
2022/05/11 03:43:40;;;;;;;12.10;8.95;;;19.00;59.00;;;;;;5033863;28;20029;-78
2022/05/11 03:46:07;;;;;;;11.93;8.63;;;18.90;58.90;;;;;;5033741;28;20092;-78
2022/05/11 03:48:34;;;;;;;13.05;8.38;;;18.90;59.10;;;;;;5016385;28;20452;-78
2022/05/11 03:51:00;;;;;;;9.65;7.88;;;18.90;58.70;;;;;;5015921;28;20033;-79
2022/05/11 03:53:26;;;;;;;14.07;9.57;;;18.80;59.30;;;;;;5034307;28;20044;-78
2022/05/11 03:55:53;;;;;;;10.00;7.78;;;18.80;59.40;;;;;;5033442;28;20494;-79
2022/05/11 03:58:18;;;;;;;9.90;7.55;;;19.00;59.00;;;;;;5033223;28;20400;-78
2022/05/11 04:00:44;;;;;;;11.43;8.10;;;19.20;59.00;;;;;;5033838;28;20540;-77
2022/05/11 04:03:10;;;;;;;11.25;8.25;;;19.40;58.60;;;;;;5033302;28;20490;-80
2022/05/11 04:05:36;;;;;;;10.85;8.15;;;19.60;58.30;;;;;;5015506;28;20021;-78
2022/05/11 04:08:01;;;;;;;11.45;9.07;;;19.60;58.00;;;;;;5015890;28;20026;-78
2022/05/11 04:10:27;;;;;;;10.48;8.15;;;19.50;58.10;;;;;;5015738;28;20140;-78
2022/05/11 04:12:53;;;;;;;9.48;7.57;;;19.50;58.80;;;;;;5032328;28;20099;-85
2022/05/11 04:15:19;;;;;;;10.60;7.57;;;19.50;59.00;;;;;;5033038;28;20021;-87
2022/05/11 04:17:45;;;;;;;10.57;7.22;;;19.20;60.00;;;;;;5032962;28;20034;-80
2022/05/11 04:20:15;;;;;;;8.73;7.57;;;19.10;60.90;;;;;;5032995;28;20123;-81
2022/05/11 04:22:41;;;;;;;9.02;7.35;;;19.20;61.40;;;;;;5033080;28;20040;-78
2022/05/11 04:25:07;;;;;;;11.88;7.20;;;19.00;62.00;;;;;;5033431;28;20100;-82
2022/05/11 04:27:33;;;;;;;8.93;7.35;;;18.90;62.90;;;;;;5033475;28;20078;-88
2022/05/11 04:30:00;;;;;;;11.50;7.40;;;19.20;62.70;;;;;;5033322;28;20021;-78
2022/05/11 04:32:26;;;;;;;10.52;7.43;;;19.90;61.90;;;;;;5016306;28;20374;-78
2022/05/11 04:34:53;;;;;;;10.43;7.88;;;20.30;60.80;;;;;;5032964;28;20043;-77
2022/05/11 04:37:19;;;;;;;9.68;7.50;;;20.70;60.20;;;;;;5015985;28;20029;-87
2022/05/11 04:39:44;;;;;;;10.20;7.55;;;20.90;60.00;;;;;;5033679;28;20036;-81
2022/05/11 04:42:14;;;;;;;8.82;7.00;;;21.20;59.50;;;;;;5015551;28;20033;-81
2022/05/11 04:44:40;;;;;;;11.18;7.28;;;21.20;58.90;;;;;;5033362;28;20096;-81
2022/05/11 04:47:14;;;;;;;8.98;6.88;;;21.50;58.80;;;;;;5032786;28;20075;-80
2022/05/11 04:49:40;;;;;;;10.27;7.15;;;21.60;58.60;;;;;;5033068;28;20037;-82
2022/05/11 04:52:08;;;;;;;10.68;6.78;;;21.80;58.20;;;;;;5033212;28;20076;-88
2022/05/11 04:54:39;;;;;;;9.60;7.32;;;21.80;57.90;;;;;;5018189;28;20042;-84
2022/05/11 04:57:06;;;;;;;9.88;6.28;;;21.80;58.30;;;;;;5027871;28;20187;-81
2022/05/11 04:59:32;;;;;;;9.02;6.38;;;21.90;57.60;;;;;;5011733;28;20117;-86
2022/05/11 05:01:59;;;;;;;8.07;6.70;;;21.60;58.60;;;;;;5012162;28;20164;-80
2022/05/11 05:04:27;;;;;;;10.10;7.13;;;21.70;58.60;;;;;;5013547;28;20030;-87
2022/05/11 05:06:54;;;;;;;11.77;7.50;;;22.10;58.10;;;;;;4996267;28;20075;-87
2022/05/11 05:09:19;;;;;;;11.00;7.35;;;22.10;58.30;;;;;;4997573;28;20033;-80
2022/05/11 05:11:45;;;;;;;11.40;7.10;;;22.20;58.10;;;;;;5025589;28;20022;-86
2022/05/11 05:14:11;;;;;;;10.88;6.80;;;22.30;57.80;;;;;;5022423;28;20033;-85
2022/05/11 05:16:37;;;;;;;9.48;6.57;;;22.60;57.00;;;;;;5023466;28;20026;-78
2022/05/11 05:19:03;;;;;;;8.85;6.45;;;22.40;57.40;;;;;;5019758;28;20088;-80
2022/05/11 05:21:31;;;;;;;9.80;6.13;;;22.00;57.90;;;;;;5032295;28;20022;-87
2022/05/11 05:23:57;;;;;;;8.98;6.43;;;21.90;58.30;;;;;;5016777;28;20037;-81
2022/05/11 05:26:23;;;;;;;9.38;6.38;;;22.10;57.90;;;;;;5018174;28;20036;-80
2022/05/11 05:31:35;;;;;;;9.82;5.85;;;21.80;60.30;;;;;;5036277;28;20067;-81
2022/05/11 05:34:01;;;;;;;7.18;5.95;;;21.40;60.70;;;;;;5036215;28;20041;-77
2022/05/11 05:36:32;;;;;;;8.75;6.38;;;21.00;62.30;;;;;;5036706;28;20026;-83
2022/05/11 05:39:00;;;;;;;;;;;20.70;62.70;;;;;;5010471;28;20037;-85
2022/05/11 05:41:27;;;;;;;8.98;6.82;;;21.40;62.40;;;;;;5015948;28;19916;-82
2022/05/11 05:43:54;;;;;;;7.93;6.30;;;21.70;61.10;;;;;;5002655;28;20032;-78
2022/05/11 05:46:20;;;;;;;8.98;6.55;;;22.40;60.10;;;;;;4998074;28;20030;-79
2022/05/11 05:48:46;;;;;;;11.88;6.30;;;22.90;58.60;;;;;;5029236;28;20457;-80
2022/05/11 05:51:16;;;;;;;9.07;6.80;;;23.30;57.40;;;;;;5006857;28;20055;-79
2022/05/11 05:53:43;;;;;;;9.48;6.10;;;23.50;56.40;;;;;;5035377;28;20365;-80
2022/05/11 05:56:09;;;;;;;9.63;6.43;;;23.70;56.10;;;;;;5017383;28;20030;-81
2022/05/11 05:58:36;;;;;;;10.65;6.35;;;23.90;55.20;;;;;;5015265;28;20026;-80
2022/05/11 06:01:03;;;;;;;9.90;6.45;;;23.90;55.30;;;;;;5017501;28;20477;-79
2022/05/11 06:03:31;;;;;;;10.13;5.90;;;23.90;56.30;;;;;;5015811;28;20038;-79
2022/05/11 06:05:57;;;;;;;7.90;5.65;;;23.70;57.00;;;;;;5016217;28;20376;-79
2022/05/11 06:08:23;;;;;;;10.43;5.97;;;23.20;58.10;;;;;;5023165;28;20542;-78
2022/05/11 06:10:51;;;;;;;9.18;5.57;;;22.60;60.30;;;;;;5014337;28;20064;-77
2022/05/11 06:13:20;;;;;;;6.75;5.68;;;23.00;60.20;;;;;;5006312;28;20090;-86
2022/05/11 06:15:46;;;;;;;8.38;5.57;;;22.90;59.70;;;;;;5004727;28;20380;-91
2022/05/11 06:18:12;;;;;;;8.18;5.85;;;21.90;61.50;;;;;;5028149;28;20463;-86
2022/05/11 06:20:38;;;;;;;8.38;5.75;;;21.80;62.20;;;;;;5018196;28;20025;-79
2022/05/11 06:23:05;;;;;;;7.97;5.78;;;21.60;62.60;;;;;;5033179;28;20025;-84
2022/05/11 06:25:32;;;;;;;7.18;5.78;;;21.60;62.70;;;;;;5027116;28;20033;-86
2022/05/11 06:27:58;;;;;;;9.40;6.05;;;21.40;62.80;;;;;;4997971;28;20421;-89
2022/05/11 06:30:25;;;;;;;7.68;5.57;;;21.60;63.60;;;;;;4998006;28;20044;-79
2022/05/11 06:32:51;;;;;;;8.32;6.03;;;21.50;62.90;;;;;;5015006;28;20385;-80
2022/05/11 06:35:17;;;;;;;9.45;5.90;;;22.00;62.00;;;;;;4996563;28;20026;-80
2022/05/11 06:37:44;;;;;;;9.05;6.10;;;22.10;61.60;;;;;;4998266;28;20026;-79
2022/05/11 06:40:12;;;;;;;9.30;5.72;;;22.40;61.20;;;;;;4997171;28;20491;-79
2022/05/11 06:42:38;;;;;;;9.20;6.07;;;22.90;59.60;;;;;;4997509;28;20441;-79
2022/05/11 06:45:05;;;;;;;12.02;7.30;;;23.40;58.90;;;;;;5014965;28;20070;-84
2022/05/11 06:47:32;;;;;;;9.23;6.47;;;23.50;59.00;;;;;;4998514;28;20493;-89
2022/05/11 06:49:58;;;;;;;13.25;6.95;;;23.20;59.30;;;;;;4997428;28;20049;-81
2022/05/11 06:52:24;;;;;;;14.70;7.32;;;22.80;60.80;;;;;;4998544;28;20366;-83
2022/05/11 07:00:19;;;;;;;9.13;6.53;;;22.80;60.80;;;;;;5015349;28;20036;-88
2022/05/11 07:02:44;;;;;;;8.77;6.45;;;23.10;60.40;;;;;;5014586;28;20030;-78
2022/05/11 07:05:11;;;;;;;11.80;6.22;;;23.90;59.00;;;;;;4996765;28;20025;-80
2022/05/11 07:07:37;;;;;;;11.98;5.78;;;24.10;58.20;;;;;;4996970;28;20026;-90
2022/05/11 07:10:04;;;;;;;8.35;5.85;;;24.00;59.00;;;;;;5014301;28;20068;-88
2022/05/11 07:12:37;;;;;;;10.90;5.85;;;24.00;58.70;;;;;;5014550;28;20025;-80
2022/05/11 07:15:06;;;;;;;9.00;5.68;;;23.90;58.40;;;;;;5014684;28;20087;-81
2022/05/11 07:17:42;;;;;;;8.63;5.65;;;23.90;58.90;;;;;;4997387;28;20022;-86
2022/05/11 07:20:14;;;;;;;7.82;5.80;;;24.00;58.50;;;;;;4997092;28;20521;-80
2022/05/11 07:22:40;;;;;;;10.95;5.68;;;23.90;57.90;;;;;;4996934;28;20072;-82
2022/05/11 07:25:08;;;;;;;8.18;5.60;;;23.80;59.30;;;;;;5014249;28;20030;-84
2022/05/11 07:27:34;;;;;;;8.45;5.38;;;23.90;59.50;;;;;;5013972;28;20037;-79
2022/05/11 07:30:00;;;;;;;8.32;5.82;;;24.00;58.40;;;;;;5014635;28;20022;-93
2022/05/11 07:32:27;;;;;;;7.63;5.03;;;24.20;57.90;;;;;;5013643;28;20025;-80
2022/05/11 07:34:53;;;;;;;8.10;5.47;;;24.60;57.60;;;;;;4996441;28;20033;-83
2022/05/11 07:37:19;;;;;;;9.88;5.47;;;24.90;56.30;;;;;;5014116;28;20022;-83
2022/05/11 07:39:45;;;;;;;6.93;5.35;;;25.20;55.30;;;;;;5013902;28;20530;-80
2022/05/11 07:42:12;;;;;;;9.82;5.10;;;25.20;55.20;;;;;;4996251;28;20385;-78
2022/05/11 07:44:38;;;;;;;9.52;5.72;;;25.50;54.40;;;;;;4996197;28;20026;-84
2022/05/11 07:47:04;;;;;;;6.47;4.80;;;25.70;55.20;;;;;;4998000;28;20069;-77
2022/05/11 07:49:29;;;;;;;7.65;4.90;;;25.80;54.10;;;;;;5013168;28;20574;-78
2022/05/11 07:51:55;;;;;;;9.48;4.72;;;26.00;54.20;;;;;;5014214;28;20056;-79
2022/05/11 07:54:21;;;;;;;7.28;4.80;;;26.00;55.20;;;;;;4995809;28;20037;-78
2022/05/11 08:02:16;;;;;;;13.60;4.63;;;27.10;51.70;;;;;;5013727;28;20171;-78
2022/05/11 08:04:42;;;;;;;7.32;4.50;;;28.00;52.10;;;;;;5013351;28;20104;-81
2022/05/11 08:07:09;;;;;;;7.45;4.07;;;28.50;51.20;;;;;;4996976;28;20350;-77
2022/05/11 08:09:35;;;;;;;7.28;4.57;;;28.70;49.50;;;;;;5013839;28;20033;-79
2022/05/11 08:12:01;;;;;;;6.15;3.90;;;28.80;50.50;;;;;;5013597;28;20176;-83
2022/05/11 08:14:27;;;;;;;6.13;3.90;;;28.80;49.10;;;;;;5013197;28;20428;-76
2022/05/11 08:16:53;;;;;;;8.20;3.50;;;29.00;48.20;;;;;;5013164;28;20076;-75
2022/05/11 08:19:24;;;;;;;7.18;4.00;;;29.10;47.80;;;;;;5013371;28;20026;-86
2022/05/11 08:21:51;;;;;;;6.15;3.75;;;29.20;48.60;;;;;;5014327;28;20026;-76
2022/05/11 08:24:18;;;;;;;5.95;3.60;;;29.20;46.60;;;;;;5013511;28;20030;-79
2022/05/11 08:26:46;;;;;;;6.38;3.60;;;29.20;47.10;;;;;;4995242;28;20029;-80
2022/05/11 08:33:19;;;;;;;5.22;3.63;;;29.40;46.10;;;;;;4995803;28;20420;-85
2022/05/11 08:34:44;;;;;;;5.50;3.65;;;30.00;46.50;;;;;;5013059;28;20543;-78
2022/05/11 08:37:12;;;;;;;6.90;3.45;;;30.10;45.30;;;;;;4996163;28;20072;-80
2022/05/11 08:39:38;;;;;;;5.13;3.20;;;30.10;44.80;;;;;;4995983;28;20026;-80
2022/05/11 08:42:04;;;;;;;5.07;3.33;;;30.20;45.20;;;;;;5012588;28;20083;-83
2022/05/11 08:44:36;;;;;;;19.15;4.28;;;30.50;44.80;;;;;;5012821;28;20084;-80
2022/05/11 08:47:27;;;;;;;7.80;3.30;;;30.80;45.50;;;;;;5013165;28;20026;-85
2022/05/11 08:50:26;;;;;;;7.40;3.20;;;30.50;43.90;;;;;;4995872;28;20050;-86
2022/05/11 08:53:38;;;;;;;5.60;3.00;;;29.40;44.60;;;;;;5002583;28;20029;-76
2022/05/11 08:56:13;;;;;;;7.00;3.30;;;29.90;44.60;;;;;;4935539;28;20039;-81
2022/05/11 08:58:52;;;;;;;7.10;3.40;;;30.00;44.10;;;;;;4934967;29;20063;-79
2022/05/11 09:01:29;;;;;;;6.35;3.53;;;30.20;44.30;;;;;;4937816;29;20530;-79
2022/05/11 09:03:58;;;;;;;6.38;3.17;;;30.40;44.30;;;;;;4937075;29;20034;-77
2022/05/11 09:06:30;;;;;;;7.50;3.30;;;30.60;44.00;;;;;;4936617;29;20115;-79
2022/05/11 09:08:58;;;;;;;7.28;3.60;;;30.60;43.90;;;;;;4936923;29;20034;-80
2022/05/11 09:11:50;;;;;;;4.88;3.03;;;30.30;43.60;;;;;;4937315;29;20125;-83
2022/05/11 09:14:22;;;;;;;10.35;3.50;;;29.90;43.60;;;;;;4936799;29;20047;-86
2022/05/11 09:16:51;;;;;;;7.43;3.58;;;30.00;44.50;;;;;;4936604;29;20032;-80
2022/05/11 09:19:32;;;;;;;5.22;3.50;;;30.50;44.20;;;;;;4936505;29;20147;-83
2022/05/11 09:22:05;;;;;;;7.38;3.53;;;30.90;45.50;;;;;;4936545;29;20368;-86
2022/05/11 09:24:36;;;;;;;6.60;3.30;;;30.90;43.60;;;;;;4936818;29;20070;-78
2022/05/11 09:27:05;;;;;;;5.70;3.22;;;30.40;43.90;;;;;;4937959;29;20043;-82
2022/05/11 09:29:42;;;;;;;5.32;3.17;;;30.50;44.00;;;;;;4937826;28;20015;-78
2022/05/11 09:32:38;;;;;;;5.07;2.92;;;30.40;42.70;;;;;;4964065;28;20038;-80
2022/05/11 09:35:36;;;;;;;4.90;3.20;;;31.00;43.10;;;;;;4999553;28;20053;-81
2022/05/11 09:38:22;;;;;;;4.55;3.03;;;31.40;44.30;;;;;;5010372;28;20041;-79
2022/05/11 09:41:05;;;;;;;5.32;2.78;;;31.70;42.10;;;;;;4998750;28;20057;-83
2022/05/11 09:43:36;;;;;;;7.22;3.40;;;31.50;42.60;;;;;;5015841;28;20116;-80
2022/05/11 09:46:34;;;;;;;;;;;31.40;43.20;;;;;;5016446;28;20026;-77
2022/05/11 09:49:01;;;;;;;5.97;3.40;;;30.90;42.50;;;;;;4917093;29;19919;-81
2022/05/11 09:51:43;;;;;;;4.93;3.10;;;30.90;42.60;;;;;;4917316;29;20111;-81
2022/05/11 09:54:33;;;;;;;8.82;3.78;;;31.20;42.50;;;;;;4917511;29;20448;-80
2022/05/11 09:57:03;;;;;;;5.55;3.10;;;31.40;40.90;;;;;;4916849;29;20032;-81
2022/05/11 09:59:40;;;;;;;7.55;3.70;;;31.80;41.00;;;;;;4916837;29;20044;-80
2022/05/11 10:02:26;;;;;;;4.20;2.80;;;32.00;42.70;;;;;;4916656;29;20047;-80
2022/05/11 10:05:03;;;;;;;6.03;3.22;;;32.00;42.50;;;;;;4917180;29;20518;-77
2022/05/11 10:07:36;;;;;;;7.43;3.10;;;32.10;41.90;;;;;;4916939;29;20162;-81
2022/05/11 10:10:28;;;;;;;6.72;3.30;;;32.00;42.10;;;;;;4915601;29;20035;-84
2022/05/11 10:13:32;;;;;;;5.78;3.30;;;31.30;41.90;;;;;;4916644;29;20032;-80
2022/05/11 10:21:56;;;;;;;5.97;3.17;;;31.80;42.00;;;;;;4916997;29;20031;-89
2022/05/11 10:25:00;;;;;;;6.95;3.35;;;30.50;41.40;;;;;;4955856;28;20916;-80
2022/05/11 10:27:32;;;;;;;5.03;3.10;;;30.30;44.00;;;;;;4997321;28;20420;-80
2022/05/11 10:30:03;;;;;;;8.40;3.47;;;30.70;41.80;;;;;;4997708;28;20125;-78
2022/05/11 10:32:34;;;;;;;16.45;4.13;;;30.30;42.70;;;;;;4999972;28;20026;-80
2022/05/11 10:35:17;;;;;;;5.28;3.25;;;30.10;42.80;;;;;;5014701;28;20033;-79
2022/05/11 10:37:52;;;;;;;5.63;3.33;;;31.00;43.60;;;;;;5014879;28;20076;-77
2022/05/11 10:40:39;;;;;;;7.28;3.38;;;31.50;41.40;;;;;;4997284;28;20080;-81
2022/05/11 10:43:29;;;;;;;6.47;3.05;;;31.70;41.60;;;;;;5015055;28;20029;-84
2022/05/11 10:46:02;;;;;;;5.88;2.97;;;31.60;40.80;;;;;;4997074;28;20128;-79
2022/05/11 10:49:09;;;;;;;5.65;3.10;;;31.70;42.60;;;;;;4996460;28;20028;-77
2022/05/11 10:51:57;;;;;;;6.03;3.13;;;32.30;41.10;;;;;;4934732;29;20065;-77
2022/05/11 10:54:23;;;;;;;7.28;3.28;;;32.60;40.80;;;;;;4934719;29;20064;-80
2022/05/11 10:57:00;;;;;;;5.35;2.85;;;32.40;41.00;;;;;;4934580;29;20155;-80
2022/05/11 10:59:41;;;;;;;5.75;3.13;;;32.50;41.30;;;;;;4934921;29;20443;-79
2022/05/11 11:02:06;;;;;;;6.32;3.35;;;32.50;42.70;;;;;;4934821;29;20496;-80
2022/05/11 11:04:54;;;;;;;6.35;3.33;;;32.20;41.30;;;;;;4934876;29;20060;-79
2022/05/11 11:07:52;;;;;;;4.68;3.13;;;31.70;41.20;;;;;;4934541;29;20028;-81
2022/05/11 11:10:29;;;;;;;5.78;2.95;;;31.50;40.30;;;;;;4896579;29;20157;-80
2022/05/11 11:13:03;;;;;;;5.90;3.50;;;31.50;42.00;;;;;;4897060;29;20107;-80
2022/05/11 11:15:32;;;;;;;5.45;3.00;;;31.50;40.30;;;;;;4896711;29;20052;-83
2022/05/11 11:17:59;;;;;;;4.70;3.03;;;31.80;42.20;;;;;;4896437;29;20085;-80
2022/05/11 11:20:27;;;;;;;5.70;3.50;;;32.00;40.80;;;;;;4896574;29;20055;-78
2022/05/11 11:23:16;;;;;;;5.40;3.38;;;32.20;42.00;;;;;;4924731;29;20514;-79
2022/05/11 11:25:54;;;;;;;5.03;3.05;;;32.10;40.60;;;;;;4918383;29;20027;-79
2022/05/11 11:28:53;;;;;;;7.38;3.10;;;32.10;42.80;;;;;;4918523;29;20059;-80
2022/05/11 11:31:24;;;;;;;7.55;3.42;;;31.40;41.00;;;;;;4923959;29;20059;-79
2022/05/11 11:33:53;;;;;;;5.18;2.90;;;31.70;42.50;;;;;;4934337;29;20578;-77
2022/05/11 11:36:26;;;;;;;5.47;2.95;;;32.30;40.70;;;;;;4919531;29;20130;-80
2022/05/11 11:38:53;;;;;;;5.72;3.20;;;32.50;41.40;;;;;;4918070;29;20024;-75
2022/05/11 11:41:30;;;;;;;6.10;3.30;;;32.70;42.00;;;;;;4933967;29;20035;-78
2022/05/11 11:44:27;;;;;;;4.82;3.20;;;32.70;40.80;;;;;;4933986;29;20391;-85
2022/05/11 11:46:53;;;;;;;6.05;3.00;;;32.20;40.90;;;;;;4960259;28;20037;-83
2022/05/11 11:49:19;;;;;;;5.72;3.10;;;32.20;41.30;;;;;;5013008;28;20400;-74
2022/05/11 11:51:50;;;;;;;4.55;3.13;;;32.50;42.10;;;;;;5013608;28;20547;-76
2022/05/11 11:54:25;;;;;;;5.10;3.00;;;32.70;41.90;;;;;;5013377;28;20036;-74
2022/05/11 11:56:54;;;;;;;5.43;3.10;;;31.40;40.50;;;;;;5013173;28;20026;-80
2022/05/11 11:59:22;;;;;;;4.30;2.83;;;31.40;42.10;;;;;;4996019;28;20022;-79
2022/05/11 12:01:49;;;;;;;4.25;2.90;;;31.40;41.60;;;;;;5013183;28;20025;-79
2022/05/11 12:04:29;;;;;;;5.82;2.90;;;31.80;41.90;;;;;;4995349;28;20033;-76
2022/05/11 12:15:38;;;;;;;4.70;3.03;;;31.70;40.70;;;;;;5012922;28;20032;-76
2022/05/11 12:18:23;;;;;;;5.25;3.08;;;32.00;40.80;;;;;;4996843;28;20033;-81
2022/05/11 12:20:49;;;;;;;6.75;2.97;;;32.10;41.50;;;;;;5013178;28;20029;-81
2022/05/11 12:23:29;;;;;;;5.78;3.13;;;32.50;41.00;;;;;;5014207;28;20053;-80
2022/05/11 12:26:08;;;;;;;5.05;2.80;;;32.30;40.60;;;;;;5013381;28;20059;-78
2022/05/11 12:28:41;;;;;;;5.80;2.80;;;31.80;39.80;;;;;;5013505;28;20069;-79
2022/05/11 12:31:07;;;;;;;4.65;2.80;;;31.80;41.10;;;;;;4997464;28;20034;-75
2022/05/11 12:33:36;;;;;;;4.70;3.20;;;32.20;41.10;;;;;;4995935;28;20030;-77
2022/05/11 12:36:03;;;;;;;5.55;3.10;;;32.70;39.90;;;;;;5017147;28;20354;-77
2022/05/11 12:38:32;;;;;;;4.07;2.70;;;32.80;40.10;;;;;;5017280;28;20105;-77
2022/05/11 12:41:01;;;;;;;6.38;3.20;;;32.10;39.00;;;;;;5016871;28;20026;-77
2022/05/11 12:43:33;;;;;;;6.13;2.80;;;31.80;39.90;;;;;;5017060;28;20034;-76
2022/05/11 12:46:01;;;;;;;7.43;2.90;;;31.90;40.50;;;;;;5016976;28;20531;-78
2022/05/11 12:48:34;;;;;;;6.80;2.83;;;32.20;40.70;;;;;;5016862;28;20026;-87
2022/05/11 12:51:12;;;;;;;4.13;2.80;;;32.00;39.20;;;;;;5016891;28;20034;-78
2022/05/11 12:53:47;;;;;;;5.70;2.90;;;31.40;39.50;;;;;;5016688;28;20030;-78
2022/05/11 12:56:19;;;;;;;5.18;2.90;;;31.60;40.70;;;;;;5016748;28;20022;-78
2022/05/11 12:58:49;;;;;;;4.75;2.70;;;32.10;39.80;;;;;;4999163;28;20483;-84
2022/05/11 13:01:16;;;;;;;5.78;2.80;;;32.40;38.70;;;;;;5017800;28;20229;-76
2022/05/11 13:03:43;;;;;;;6.93;3.28;;;32.00;39.40;;;;;;4999263;28;20030;-77
2022/05/11 13:06:33;;;;;;;5.72;2.63;;;31.60;40.20;;;;;;5016730;28;20050;-78
2022/05/11 13:09:28;;;;;;;6.33;2.70;;;31.90;39.70;;;;;;4999829;28;20030;-75
2022/05/11 13:11:54;;;;;;;6.63;2.50;;;32.30;40.00;;;;;;5012385;28;20042;-76
2022/05/11 13:14:30;;;;;;;5.38;3.10;;;32.80;38.60;;;;;;5016255;28;20065;-84
2022/05/11 13:17:01;;;;;;;5.32;2.60;;;32.60;37.30;;;;;;5016188;28;20026;-79
2022/05/11 13:19:38;;;;;;;4.85;2.70;;;32.40;38.90;;;;;;4998932;28;20042;-78
2022/05/11 13:22:11;;;;;;;5.65;2.72;;;32.50;39.40;;;;;;5001172;28;20026;-80
2022/05/11 13:24:49;;;;;;;6.78;2.88;;;32.30;39.40;;;;;;5016612;28;20030;-78
2022/05/11 13:27:32;;;;;;;5.22;2.90;;;32.20;39.90;;;;;;5015858;28;20117;-79
2022/05/11 13:30:21;;;;;;;5.53;2.75;;;31.90;39.70;;;;;;4998633;28;20037;-87
2022/05/11 13:32:53;;;;;;;6.25;2.97;;;31.70;40.20;;;;;;5005786;28;20037;-78
2022/05/11 13:35:33;;;;;;;5.15;2.80;;;31.90;40.70;;;;;;5016082;28;20515;-85
2022/05/11 13:38:02;;;;;;;;;;;32.10;39.90;;;;;;4998886;28;20022;-81
2022/05/11 13:40:29;;;;;;;4.05;3.00;;;31.70;40.00;;;;;;4998501;28;19905;-78
2022/05/11 13:42:55;;;;;;;5.63;2.92;;;32.10;40.50;;;;;;5016683;28;20042;-78